Time;durP1;ratioP1;P1;durP2;ratioP2;P2;SDS_P1;SDS_P2;PMS_P1;PMS_P2;Temp;Humidity;BMP_temperature;BMP_pressure;BME280_temperature;BME280_humidity;BME280_pressure;Samples;Min_cycle;Max_cycle;Signal;HPM_P1;HPM_P2
2020/12/28 00:01:16;;;;;;;5.30;4.90;;;;;;;-1.86;77.96;95051.97;5002399;28;20953;-72
2020/12/28 00:03:43;;;;;;;4.53;4.23;;;;;;;-1.88;79.49;95069.47;5001852;28;20635;-73
2020/12/28 00:06:10;;;;;;;5.27;4.87;;;;;;;-1.99;79.71;95042.03;5002919;28;20451;-73
2020/12/28 00:08:37;;;;;;;6.17;5.63;;;;;;;-1.87;78.63;95056.31;5006990;28;20462;-73
2020/12/28 00:11:05;;;;;;;6.63;6.00;;;;;;;-1.89;78.17;95047.88;4999671;28;20440;-71
2020/12/28 00:13:32;;;;;;;5.80;5.33;;;;;;;-1.93;79.62;95075.94;5000707;28;20484;-71
2020/12/28 00:15:59;;;;;;;5.27;4.80;;;;;;;-1.69;78.85;95058.78;5002819;28;20660;-73
2020/12/28 00:18:26;;;;;;;5.57;5.07;;;;;;;-1.72;78.95;95043.53;5001678;28;20463;-72
2020/12/28 00:20:53;;;;;;;6.90;6.40;;;;;;;-1.79;79.63;95064.13;5004329;28;20715;-73
2020/12/28 00:23:20;;;;;;;5.37;4.87;;;;;;;-1.80;78.60;95065.09;5011124;28;20481;-73
2020/12/28 00:25:47;;;;;;;5.43;5.03;;;;;;;-1.73;78.70;95065.28;5004911;28;20478;-71
2020/12/28 00:28:16;;;;;;;5.40;5.00;;;;;;;-1.64;77.81;95053.13;5003640;28;20240;-71
2020/12/28 00:30:43;;;;;;;4.80;4.43;;;;;;;-1.61;78.09;95060.59;5006613;28;20209;-73
2020/12/28 00:33:10;;;;;;;5.90;5.17;;;;;;;-1.58;78.24;95067.25;5010856;28;20488;-74
2020/12/28 00:35:37;;;;;;;5.27;4.87;;;;;;;-1.69;78.37;95074.38;5005891;28;20934;-75
2020/12/28 00:38:04;;;;;;;5.47;5.00;;;;;;;-1.70;79.23;95083.13;5003955;28;20444;-73
2020/12/28 00:40:31;;;;;;;5.73;5.33;;;;;;;-1.54;78.67;95073.75;5010786;28;20209;-74
2020/12/28 00:42:58;;;;;;;4.97;4.67;;;;;;;-1.53;77.71;95050.22;5003961;28;20451;-74
2020/12/28 00:45:26;;;;;;;5.27;4.87;;;;;;;-1.71;80.28;95024.38;5005712;28;20212;-73
2020/12/28 00:47:53;;;;;;;5.87;5.37;;;;;;;-1.75;81.73;95013.50;5010243;28;20205;-73
2020/12/28 00:50:20;;;;;;;4.87;4.57;;;;;;;-1.79;82.79;95009.59;5007156;28;20478;-72
2020/12/28 00:52:47;;;;;;;5.93;5.43;;;;;;;-1.95;85.17;95001.81;5006015;28;20263;-71
2020/12/28 00:55:14;;;;;;;5.43;5.03;;;;;;;-1.93;85.24;95000.66;5004059;28;20440;-73
2020/12/28 00:57:41;;;;;;;5.70;5.20;;;;;;;-1.87;86.98;94983.63;5006171;28;20259;-73
2020/12/28 01:00:08;;;;;;;5.43;4.77;;;;;;;-1.97;87.31;94981.19;5007448;28;20546;-73
2020/12/28 01:02:36;;;;;;;5.20;4.70;;;;;;;-2.02;88.58;94967.88;5006197;28;20547;-73
2020/12/28 01:05:03;;;;;;;5.17;4.80;;;;;;;-2.01;90.15;94961.72;5002501;28;20439;-72
2020/12/28 01:07:30;;;;;;;4.83;4.43;;;;;;;-1.88;88.11;94968.25;5009139;28;20780;-72
2020/12/28 01:09:57;;;;;;;6.33;5.83;;;;;;;-2.05;89.44;94955.22;5004407;28;20229;-72
2020/12/28 01:12:24;;;;;;;4.63;4.33;;;;;;;-2.07;90.45;94939.84;5006808;28;20442;-74
2020/12/28 01:14:51;;;;;;;5.10;4.70;;;;;;;-2.05;90.47;94935.28;5000861;28;20201;-71
2020/12/28 01:17:18;;;;;;;5.50;5.10;;;;;;;-1.96;91.11;94925.72;5005444;28;21129;-73
2020/12/28 01:19:46;;;;;;;5.63;5.23;;;;;;;-1.98;90.66;94911.28;5004714;28;20959;-73
2020/12/28 01:22:13;;;;;;;5.33;4.93;;;;;;;-1.70;88.81;94918.75;5012100;28;20452;-73
2020/12/28 01:24:40;;;;;;;6.00;5.50;;;;;;;-1.89;89.61;94918.09;5012271;28;20435;-72
2020/12/28 01:27:07;;;;;;;5.90;5.40;;;;;;;-1.78;90.16;94933.34;5006991;28;21140;-73
2020/12/28 01:29:38;;;;;;;5.67;5.17;;;;;;;-1.74;88.88;94931.25;5009114;28;20526;-73
2020/12/28 01:32:05;;;;;;;5.63;5.23;;;;;;;-1.80;90.29;94931.91;5003001;28;20455;-73
2020/12/28 01:34:32;;;;;;;5.37;4.97;;;;;;;-1.68;88.42;94920.19;5011447;28;20479;-74
2020/12/28 01:36:59;;;;;;;5.40;5.00;;;;;;;-1.69;88.75;94910.00;5008562;28;20448;-74
2020/12/28 01:39:26;;;;;;;5.63;5.13;;;;;;;-1.88;89.16;94895.56;5003986;28;20885;-72
2020/12/28 01:41:54;;;;;;;6.07;5.47;;;;;;;-1.74;89.23;94900.09;5011430;28;20476;-73
2020/12/28 01:44:21;;;;;;;4.93;4.53;;;;;;;-1.65;89.08;94913.88;5004226;28;20928;-72
2020/12/28 01:46:48;;;;;;;5.97;5.47;;;;;;;-1.65;89.68;94900.91;5011587;28;20436;-74
2020/12/28 01:49:16;;;;;;;5.30;4.80;;;;;;;-1.68;88.55;94912.41;5011246;28;20331;-72
2020/12/28 01:51:44;;;;;;;5.30;4.93;;;;;;;-1.75;91.04;94919.22;5005549;28;20463;-73
2020/12/28 01:54:12;;;;;;;5.47;5.07;;;;;;;-1.62;89.42;94887.59;5003171;28;20220;-74
2020/12/28 01:56:41;;;;;;;5.30;4.90;;;;;;;-1.70;89.93;94879.81;5004682;28;20448;-72
2020/12/28 01:59:08;;;;;;;5.77;5.27;;;;;;;-1.48;88.34;94876.50;5009351;28;20477;-73
2020/12/28 02:01:39;;;;;;;5.67;4.77;;;;;;;-1.62;88.81;94859.00;5014728;28;20467;-73
2020/12/28 02:04:07;;;;;;;5.23;4.70;;;;;;;-1.66;89.44;94845.53;5000965;28;20576;-72
2020/12/28 02:06:34;;;;;;;4.80;4.40;;;;;;;-1.63;90.96;94847.81;5004654;28;20443;-73
2020/12/28 02:09:01;;;;;;;5.57;5.10;;;;;;;-1.68;91.33;94826.72;5013377;28;20493;-73
2020/12/28 02:11:29;;;;;;;5.07;4.73;;;;;;;-1.65;90.81;94828.19;5014238;28;20451;-74
2020/12/28 02:13:57;;;;;;;5.17;4.77;;;;;;;-1.65;92.08;94834.19;5002777;28;20523;-73
2020/12/28 02:16:24;;;;;;;5.97;5.47;;;;;;;-1.32;90.23;94846.28;5007906;28;20205;-73
2020/12/28 02:18:52;;;;;;;5.70;5.30;;;;;;;-1.15;89.50;94864.41;5011252;28;20234;-73
2020/12/28 02:21:19;;;;;;;4.93;4.63;;;;;;;-1.44;91.97;94856.22;5007386;28;20201;-73
2020/12/28 02:23:47;;;;;;;5.30;4.90;;;;;;;-1.28;91.85;94854.53;5003529;28;20444;-73
2020/12/28 02:26:14;;;;;;;5.67;5.23;;;;;;;-1.49;94.36;94858.50;5013512;28;20235;-73
2020/12/28 02:28:41;;;;;;;5.57;5.07;;;;;;;-1.51;95.69;94852.66;5004705;28;20233;-74
2020/12/28 02:31:08;;;;;;;6.47;5.87;;;;;;;-1.54;94.35;94853.78;5014086;28;20201;-73
2020/12/28 02:33:35;;;;;;;5.67;5.20;;;;;;;-1.58;95.52;94842.13;5003479;28;20853;-73
2020/12/28 02:36:02;;;;;;;6.73;6.10;;;;;;;-1.53;96.07;94850.22;5012551;28;20204;-74
2020/12/28 02:41:57;;;;;;;5.00;4.50;;;;;;;-1.53;95.54;94855.41;5012557;28;20444;-74
2020/12/28 02:44:24;;;;;;;5.40;5.00;;;;;;;-1.56;96.38;94862.72;5002628;28;20444;-73
2020/12/28 02:46:51;;;;;;;5.17;4.77;;;;;;;-1.50;95.36;94856.88;5008642;28;20447;-74
2020/12/28 02:49:17;;;;;;;5.93;5.30;;;;;;;-1.40;93.46;94857.50;5003405;28;20240;-73
2020/12/28 02:51:44;;;;;;;6.20;5.60;;;;;;;-1.50;93.98;94849.09;5008904;28;20609;-73
2020/12/28 02:54:11;;;;;;;5.60;5.20;;;;;;;-1.57;94.27;94859.31;5006312;28;20866;-74
2020/12/28 02:56:39;;;;;;;6.07;5.57;;;;;;;-1.63;94.80;94867.78;5010473;28;20443;-72
2020/12/28 02:59:07;;;;;;;5.20;4.80;;;;;;;-1.47;93.61;94859.16;4999422;28;20735;-72
2020/12/28 03:01:37;;;;;;;5.67;5.07;;;;;;;-1.53;93.41;94868.41;5007768;28;20495;-74
2020/12/28 03:04:04;;;;;;;4.87;4.47;;;;;;;-1.47;95.36;94872.94;5004879;28;20452;-72
2020/12/28 03:06:31;;;;;;;5.57;5.07;;;;;;;-1.37;94.36;94845.94;5011125;28;20213;-72
2020/12/28 03:08:59;;;;;;;6.87;6.17;;;;;;;-1.47;94.88;94840.97;5013466;28;20510;-73
2020/12/28 03:11:33;;;;;;;5.07;4.63;;;;;;;-1.44;96.27;94856.22;5113209;27;20926;-75
2020/12/28 03:14:00;;;;;;;5.80;5.23;;;;;;;-1.42;94.12;94861.22;5104605;27;20679;-74
2020/12/28 03:16:27;;;;;;;5.10;4.63;;;;;;;-1.33;94.32;94857.63;5112087;27;20451;-73
2020/12/28 03:18:54;;;;;;;6.10;5.50;;;;;;;-1.33;94.83;94849.81;5114142;27;20454;-74
2020/12/28 03:21:21;;;;;;;5.23;4.80;;;;;;;-1.37;94.26;94843.34;5117514;27;20458;-74
2020/12/28 03:23:48;;;;;;;5.20;4.70;;;;;;;-1.40;95.68;94843.69;5110946;28;21167;-73
2020/12/28 03:26:16;;;;;;;6.27;5.77;;;;;;;-1.46;98.28;94842.59;5112845;27;20530;-72
2020/12/28 03:28:49;;;;;;;5.40;5.00;;;;;;;-1.34;96.27;94835.22;5114985;27;20533;-74
2020/12/28 03:31:16;;;;;;;6.83;6.23;;;;;;;-1.31;96.42;94850.50;5118484;27;20509;-74
2020/12/28 03:33:43;;;;;;;5.70;5.20;;;;;;;-1.31;95.48;94846.09;5114440;27;20954;-73
2020/12/28 03:36:11;;;;;;;7.30;5.93;;;;;;;-1.27;94.81;94836.19;5117121;27;20866;-72
2020/12/28 03:38:38;;;;;;;5.90;5.33;;;;;;;-1.32;94.65;94826.28;5116783;27;21081;-70
2020/12/28 03:41:05;;;;;;;6.37;5.10;;;;;;;-1.32;93.69;94808.09;5118244;28;20466;-72
2020/12/28 03:43:32;;;;;;;5.27;4.87;;;;;;;-1.46;94.56;94795.84;5117268;28;20443;-74
2020/12/28 03:46:00;;;;;;;5.30;4.80;;;;;;;-1.43;95.74;94805.06;5114575;28;20205;-70
2020/12/28 03:48:27;;;;;;;6.63;5.67;;;;;;;-1.32;93.58;94796.91;5113188;28;20467;-73
2020/12/28 03:50:54;;;;;;;5.83;5.33;;;;;;;-1.37;93.73;94792.22;5117663;27;20228;-73
2020/12/28 03:53:21;;;;;;;5.33;4.93;;;;;;;-1.47;95.36;94782.03;5115281;27;20454;-73
2020/12/28 03:55:48;;;;;;;6.07;5.60;;;;;;;-1.51;94.27;94785.13;5115908;27;20441;-73
2020/12/28 03:58:16;;;;;;;5.70;5.20;;;;;;;-1.52;94.70;94791.28;5112524;28;20541;-73
2020/12/28 04:00:43;;;;;;;6.10;5.60;;;;;;;-1.56;95.74;94818.56;5115859;27;20432;-73
2020/12/28 04:03:11;;;;;;;5.10;4.70;;;;;;;-1.49;94.35;94815.16;5115752;27;20457;-71
2020/12/28 04:05:38;;;;;;;6.13;5.53;;;;;;;-1.49;94.93;94815.16;5109412;27;20459;-71
2020/12/28 04:08:06;;;;;;;5.20;4.80;;;;;;;-1.46;93.40;94809.59;5113515;28;20890;-73
2020/12/28 04:10:33;;;;;;;5.83;5.33;;;;;;;-1.42;93.51;94817.88;5115030;28;20724;-74
2020/12/28 04:13:00;;;;;;;5.77;5.27;;;;;;;-1.42;93.75;94807.50;5111550;27;20801;-73
2020/12/28 04:15:27;;;;;;;4.87;4.50;;;;;;;-1.26;93.39;94798.84;5115280;27;20606;-73
2020/12/28 04:17:54;;;;;;;5.80;5.30;;;;;;;-1.26;92.19;94803.22;5111106;27;20698;-73
2020/12/28 04:20:22;;;;;;;5.50;5.00;;;;;;;-1.22;92.21;94799.28;5114637;27;20474;-73
2020/12/28 04:22:49;;;;;;;5.57;5.07;;;;;;;-1.32;92.82;94791.72;5102814;27;20197;-74
2020/12/28 04:25:16;;;;;;;5.70;5.17;;;;;;;-1.25;92.28;94791.84;5095812;28;20440;-71
2020/12/28 04:27:43;;;;;;;5.97;5.47;;;;;;;-1.30;92.20;94797.56;5101982;28;20533;-74
2020/12/28 04:30:11;;;;;;;6.10;5.60;;;;;;;-1.42;92.30;94802.31;5102561;27;20467;-73
2020/12/28 04:32:38;;;;;;;5.10;4.60;;;;;;;-1.40;91.62;94807.31;5100989;28;20976;-74
2020/12/28 04:35:05;;;;;;;5.50;5.00;;;;;;;-1.42;93.26;94809.28;5100216;28;20446;-72
2020/12/28 04:37:33;;;;;;;5.73;4.77;;;;;;;-1.46;92.57;94803.63;5108309;22;20201;-71
2020/12/28 04:40:00;;;;;;;5.17;4.77;;;;;;;-1.38;92.34;94795.78;5037091;28;20229;-71
2020/12/28 04:42:29;;;;;;;5.27;4.77;;;;;;;-1.47;92.05;94791.63;5039510;28;20578;-70
2020/12/28 04:44:56;;;;;;;5.90;5.40;;;;;;;-1.42;92.12;94783.31;5044934;28;20442;-72
2020/12/28 04:47:24;;;;;;;6.03;5.40;;;;;;;-1.38;91.45;94777.59;5045546;28;20442;-71
2020/12/28 04:49:51;;;;;;;5.60;5.13;;;;;;;-1.26;91.57;94774.63;5044671;28;20493;-73
2020/12/28 04:52:18;;;;;;;5.67;5.17;;;;;;;-1.34;91.82;94775.47;5048578;28;20453;-72
2020/12/28 04:54:47;;;;;;;6.13;5.63;;;;;;;-1.24;90.58;94778.69;5043130;28;20203;-71
2020/12/28 04:57:14;;;;;;;5.40;5.00;;;;;;;-1.22;89.96;94783.69;5037971;28;20200;-72
2020/12/28 04:59:41;;;;;;;5.17;4.77;;;;;;;-1.30;90.75;94787.16;5043158;28;20441;-72
2020/12/28 05:02:09;;;;;;;5.90;5.30;;;;;;;-1.35;91.19;94784.25;5047477;28;20215;-72
2020/12/28 05:04:36;;;;;;;5.67;5.17;;;;;;;-1.17;89.57;94784.00;5042131;28;20450;-72
2020/12/28 05:07:05;;;;;;;6.63;6.03;;;;;;;-1.15;89.96;94792.44;5047358;28;20442;-72
2020/12/28 05:09:33;;;;;;;4.97;4.57;;;;;;;-1.18;90.70;94795.38;5039499;28;20223;-72
2020/12/28 05:12:02;;;;;;;6.10;5.50;;;;;;;-1.13;89.56;94792.28;5036801;28;21053;-72
2020/12/28 05:14:30;;;;;;;5.63;5.23;;;;;;;-1.10;89.40;94776.34;5043113;28;20218;-72
2020/12/28 05:16:58;;;;;;;5.90;5.40;;;;;;;-1.19;90.61;94789.38;5042652;28;20446;-72
2020/12/28 05:19:25;;;;;;;5.93;5.47;;;;;;;-1.08;90.16;94796.00;5043774;28;20466;-71
2020/12/28 05:21:54;;;;;;;5.30;4.90;;;;;;;-1.05;90.24;94782.66;5040940;28;20447;-71
2020/12/28 05:24:21;;;;;;;6.07;5.57;;;;;;;-0.93;88.37;94787.47;5041221;28;20465;-66
2020/12/28 05:26:48;;;;;;;5.87;5.47;;;;;;;-1.02;89.51;94784.91;5034842;28;20789;-65
2020/12/28 05:29:20;;;;;;;6.00;5.50;;;;;;;-0.84;89.15;94791.63;5040787;28;20859;-69
2020/12/28 05:31:48;;;;;;;6.43;5.83;;;;;;;-0.94;88.55;94776.25;5023951;28;21318;-71
2020/12/28 05:34:18;;;;;;;6.47;5.87;;;;;;;-0.92;89.17;94748.31;5021988;28;20447;-69
2020/12/28 05:36:49;;;;;;;6.20;5.63;;;;;;;-0.88;87.93;94761.75;5022807;28;20211;-69
2020/12/28 05:39:17;;;;;;;5.87;5.37;;;;;;;-0.80;87.76;94771.28;5025977;28;20470;-69
2020/12/28 05:41:57;;;;;;;6.13;5.53;;;;;;;-0.76;87.62;94759.56;5022383;28;20974;-69
2020/12/28 05:44:25;;;;;;;6.90;6.30;;;;;;;-0.74;87.21;94749.78;5020560;28;20215;-71
2020/12/28 05:47:06;;;;;;;7.50;6.57;;;;;;;-0.83;88.92;94737.84;5023238;28;20561;-71
2020/12/28 05:49:35;;;;;;;6.60;6.10;;;;;;;-0.84;87.73;94749.22;5021319;28;20514;-69
2020/12/28 05:52:03;;;;;;;5.57;5.17;;;;;;;-0.82;88.27;94748.06;5019353;28;20447;-72
2020/12/28 05:54:31;;;;;;;6.57;5.87;;;;;;;-0.86;88.47;94746.78;5026425;28;20448;-73
2020/12/28 05:56:58;;;;;;;6.37;5.80;;;;;;;-0.82;87.80;94752.47;5030590;28;20372;-73
2020/12/28 05:59:26;;;;;;;5.87;5.37;;;;;;;-0.86;87.86;94736.38;5032851;28;20228;-72
2020/12/28 06:01:53;;;;;;;6.60;6.07;;;;;;;-0.93;88.39;94733.69;5027563;28;20210;-72
2020/12/28 06:04:20;;;;;;;5.93;5.33;;;;;;;-0.82;88.37;94736.84;5024846;28;20466;-70
2020/12/28 06:06:48;;;;;;;6.43;5.83;;;;;;;-0.82;88.37;94726.47;5019916;28;20200;-71
2020/12/28 06:09:16;;;;;;;5.70;5.20;;;;;;;-0.81;88.05;94731.47;5021204;28;20223;-71
2020/12/28 06:11:43;;;;;;;6.00;5.47;;;;;;;-0.85;89.08;94734.59;5022758;28;20228;-71
2020/12/28 06:14:17;;;;;;;5.53;5.13;;;;;;;-0.84;88.07;94736.22;5020488;28;20462;-71
2020/12/28 06:16:45;;;;;;;6.77;6.17;;;;;;;-1.06;89.68;94744.66;5017066;28;20223;-71
2020/12/28 06:19:22;;;;;;;6.53;5.93;;;;;;;-0.90;89.29;94751.53;5019245;28;20850;-72
2020/12/28 06:21:50;;;;;;;6.67;6.07;;;;;;;-1.01;89.22;94764.91;5022953;28;20204;-71
2020/12/28 06:24:27;;;;;;;6.50;6.00;;;;;;;-1.12;89.96;94762.72;5021816;28;20212;-71
2020/12/28 06:27:08;;;;;;;6.20;5.60;;;;;;;-1.20;91.37;94768.75;5022054;28;20505;-71
2020/12/28 06:29:37;;;;;;;6.73;5.83;;;;;;;-1.21;90.46;94741.16;5022360;28;20816;-69
2020/12/28 06:32:11;;;;;;;6.80;5.20;;;;;;;-1.43;92.40;94745.31;5020881;28;20664;-70
2020/12/28 06:34:39;;;;;;;7.47;6.10;;;;;;;-1.23;91.67;94736.13;5013489;28;20549;-70
2020/12/28 06:37:06;;;;;;;5.93;5.40;;;;;;;-1.32;92.37;94740.56;5021215;28;20762;-70
2020/12/28 06:39:33;;;;;;;6.70;6.10;;;;;;;-1.37;92.31;94745.47;5014996;28;20524;-70
2020/12/28 06:42:10;;;;;;;6.87;6.27;;;;;;;-1.28;92.82;94753.19;5019920;28;20443;-70
2020/12/28 06:44:37;;;;;;;7.03;6.33;;;;;;;-1.28;92.09;94756.63;5016148;28;20211;-70
2020/12/28 06:47:16;;;;;;;6.07;5.57;;;;;;;-1.30;91.83;94763.78;5017133;28;21135;-69
2020/12/28 06:49:44;;;;;;;7.10;6.50;;;;;;;-1.30;91.84;94761.19;5023433;28;20204;-69
2020/12/28 06:52:11;;;;;;;6.23;5.67;;;;;;;-1.29;91.80;94761.97;5021435;28;20207;-70
2020/12/28 06:54:38;;;;;;;7.60;6.90;;;;;;;-1.31;93.16;94756.97;5022995;28;20447;-71
2020/12/28 06:57:06;;;;;;;6.70;6.03;;;;;;;-1.32;92.68;94755.34;5019532;28;20824;-70
2020/12/28 06:59:34;;;;;;;7.43;6.60;;;;;;;-1.35;92.56;94751.28;5019979;28;20463;-69
2020/12/28 07:02:02;;;;;;;8.63;7.97;;;;;;;-1.31;93.26;94754.38;5020943;28;20200;-71
2020/12/28 07:04:33;;;;;;;7.00;6.40;;;;;;;-1.32;92.34;94752.75;5017989;28;20910;-70
2020/12/28 07:07:02;;;;;;;10.20;9.07;;;;;;;-1.33;93.22;94751.94;5015905;28;20865;-69
2020/12/28 07:09:29;;;;;;;6.87;6.37;;;;;;;-1.22;92.06;94747.31;5019791;28;20232;-70
2020/12/28 07:11:56;;;;;;;6.90;6.20;;;;;;;-1.24;92.57;94747.50;5018071;28;20708;-69
2020/12/28 07:14:23;;;;;;;9.50;8.60;;;;;;;-1.23;92.93;94740.50;5022485;28;20256;-69
2020/12/28 07:16:54;;;;;;;7.50;6.80;;;;;;;-1.15;92.06;94740.44;5020003;28;20447;-70
2020/12/28 07:19:21;;;;;;;7.73;7.13;;;;;;;-1.06;91.94;94734.25;5020105;28;20463;-69
2020/12/28 07:21:49;;;;;;;8.00;7.20;;;;;;;-0.98;90.21;94728.16;5019784;28;20443;-70
2020/12/28 07:24:16;;;;;;;7.33;6.73;;;;;;;-1.13;91.56;94733.31;5019165;28;20532;-70
2020/12/28 07:26:43;;;;;;;7.67;6.97;;;;;;;-1.18;92.17;94728.63;5021153;28;20447;-70
2020/12/28 07:29:11;;;;;;;7.37;6.77;;;;;;;-1.21;91.27;94734.16;5020863;28;20996;-70
2020/12/28 07:31:38;;;;;;;7.53;6.93;;;;;;;-1.26;92.20;94735.66;5020908;28;20742;-68
2020/12/28 07:34:05;;;;;;;8.50;7.80;;;;;;;-1.38;93.66;94736.03;5017598;28;20756;-70
2020/12/28 07:36:34;;;;;;;7.17;6.47;;;;;;;-1.21;92.33;94731.56;5023105;28;20211;-69
2020/12/28 07:39:03;;;;;;;17.23;15.60;;;;;;;-1.23;91.11;94730.13;5018490;28;20637;-70
2020/12/28 07:41:30;;;;;;;8.53;7.73;;;;;;;-1.34;93.31;94716.53;5019662;28;20538;-69
2020/12/28 07:43:58;;;;;;;8.37;7.67;;;;;;;-1.36;92.14;94726.28;5018026;28;20840;-69
2020/12/28 07:46:34;;;;;;;7.23;6.53;;;;;;;-1.18;92.09;94728.63;5021386;28;20201;-69
2020/12/28 07:49:05;;;;;;;6.83;6.13;;;;;;;-0.94;89.91;94719.06;5017947;28;20235;-70
2020/12/28 07:51:33;;;;;;;7.37;6.67;;;;;;;-0.96;89.74;94728.81;5017335;28;20727;-69
2020/12/28 07:54:09;;;;;;;6.57;6.03;;;;;;;-0.98;89.33;94720.38;5016932;28;20208;-70
2020/12/28 07:56:44;;;;;;;7.40;6.57;;;;;;;-0.96;89.65;94717.63;5019972;28;20215;-69
2020/12/28 07:59:43;;;;;;;6.70;6.03;;;;;;;-0.85;89.45;94724.22;5021804;28;20318;-70
2020/12/28 08:02:28;;;;;;;7.50;6.80;;;;;;;-0.94;89.71;94719.06;5019074;28;20439;-71
2020/12/28 08:04:56;;;;;;;7.10;6.53;;;;;;;-1.01;90.41;94718.13;5020240;28;20463;-69
2020/12/28 08:07:23;;;;;;;6.40;5.90;;;;;;;-0.90;89.62;94722.13;5042722;28;20218;-69
2020/12/28 08:09:55;;;;;;;7.10;6.50;;;;;;;-0.65;88.99;94733.16;5040706;28;20219;-70
2020/12/28 08:12:22;;;;;;;7.20;6.50;;;;;;;-0.71;88.45;94725.25;5038808;28;20211;-69
2020/12/28 08:14:53;;;;;;;7.37;6.73;;;;;;;-0.75;89.54;94729.97;5040653;28;20208;-70
2020/12/28 08:17:23;;;;;;;7.40;6.67;;;;;;;-0.64;88.25;94724.34;5036187;28;21024;-70
2020/12/28 08:19:51;;;;;;;6.70;6.20;;;;;;;-0.56;87.44;94723.50;5044839;28;20206;-70
2020/12/28 08:22:20;;;;;;;6.30;5.80;;;;;;;-0.56;87.89;94733.09;5037495;28;20211;-70
2020/12/28 08:25:01;;;;;;;6.97;6.20;;;;;;;-0.34;87.33;94729.63;5044472;28;20208;-70
2020/12/28 08:27:29;;;;;;;6.67;6.07;;;;;;;-0.56;87.15;94731.28;5043751;28;20460;-69
2020/12/28 08:29:57;;;;;;;7.30;6.70;;;;;;;-0.46;87.48;94741.47;5047524;28;20219;-69
2020/12/28 08:32:28;;;;;;;7.80;7.13;;;;;;;-0.52;87.54;94742.16;5042251;28;20206;-69
2020/12/28 08:34:56;;;;;;;8.27;7.57;;;;;;;-0.44;87.75;94744.69;5043729;28;20638;-70
2020/12/28 08:37:30;;;;;;;10.67;6.73;;;;;;;-0.04;90.47;94739.28;5032006;28;20453;-70
2020/12/28 08:39:57;;;;;;;7.93;7.23;;;;;;;0.10;85.63;94738.50;5033112;28;20204;-70
2020/12/28 08:42:31;;;;;;;8.50;7.70;;;;;;;0.13;83.43;94732.13;5046232;28;20211;-70
2020/12/28 08:45:01;;;;;;;8.30;7.23;;;;;;;-0.13;84.66;94719.53;5041878;28;20207;-70
2020/12/28 08:47:29;;;;;;;9.30;8.40;;;;;;;-0.23;85.57;94709.38;5045273;28;20203;-71
2020/12/28 08:49:56;;;;;;;9.33;8.43;;;;;;;-0.03;84.38;94709.66;5043593;28;20735;-70
2020/12/28 08:52:24;;;;;;;7.97;7.33;;;;;;;-0.01;84.08;94720.69;5040297;28;20212;-70
2020/12/28 08:54:54;;;;;;;8.50;7.63;;;;;;;0.20;82.82;94717.41;5043894;28;20878;-70
2020/12/28 08:57:23;;;;;;;7.03;6.43;;;;;;;0.20;82.82;94714.81;5036304;28;20257;-71
2020/12/28 08:59:52;;;;;;;7.63;6.33;;;;;;;-0.04;84.08;94716.69;5043933;28;20209;-70
2020/12/28 09:02:20;;;;;;;6.83;6.23;;;;;;;0.08;83.78;94713.63;5046432;28;20209;-71
2020/12/28 09:04:48;;;;;;;7.83;7.13;;;;;;;-0.05;85.11;94699.44;5042281;28;20663;-70
2020/12/28 09:07:17;;;;;;;11.80;9.90;;;;;;;-0.07;84.65;94701.41;5041727;28;20228;-70
2020/12/28 09:09:46;;;;;;;9.90;9.00;;;;;;;-0.12;85.11;94698.53;5043796;28;20234;-71
2020/12/28 09:12:17;;;;;;;9.60;8.80;;;;;;;-0.15;85.62;94691.88;5041065;28;20227;-71
2020/12/28 09:14:44;;;;;;;8.07;7.47;;;;;;;-0.02;84.92;94704.28;5045044;28;20202;-69
2020/12/28 09:17:18;;;;;;;7.37;6.67;;;;;;;0.02;83.80;94691.72;5044731;28;20211;-70
2020/12/28 09:19:45;;;;;;;7.73;6.90;;;;;;;-0.09;84.49;94694.75;5046768;28;20199;-69
2020/12/28 09:22:12;;;;;;;7.80;7.03;;;;;;;0.18;82.85;94688.09;5045223;28;20568;-69
2020/12/28 09:24:40;;;;;;;8.07;7.27;;;;;;;0.21;83.07;94690.38;5044627;28;20793;-69
2020/12/28 09:27:07;;;;;;;7.70;7.00;;;;;;;0.19;83.25;94686.31;5040629;28;20207;-69
2020/12/28 09:29:34;;;;;;;6.73;6.23;;;;;;;0.29;82.62;94684.25;5042885;28;20229;-68
2020/12/28 09:32:01;;;;;;;6.73;6.17;;;;;;;0.68;80.54;94706.56;5038052;28;20308;-68
2020/12/28 09:34:29;;;;;;;7.63;6.93;;;;;;;0.52;81.71;94697.16;5031230;28;20680;-70
2020/12/28 09:37:00;;;;;;;7.27;6.67;;;;;;;0.58;81.17;94708.66;5034616;28;20235;-69
2020/12/28 09:39:27;;;;;;;6.80;6.20;;;;;;;0.52;81.46;94701.56;5035298;28;20671;-69
2020/12/28 09:41:55;;;;;;;6.40;5.83;;;;;;;0.64;80.50;94714.94;5033575;28;20207;-69
2020/12/28 09:44:22;;;;;;;7.10;6.43;;;;;;;0.61;81.33;94699.66;5034878;28;20520;-69
2020/12/28 09:46:50;;;;;;;6.23;5.73;;;;;;;0.77;79.38;94709.06;5031713;28;20232;-70
2020/12/28 09:49:17;;;;;;;7.83;6.70;;;;;;;0.66;80.06;94708.53;5032589;28;20829;-69
2020/12/28 09:51:46;;;;;;;7.07;6.33;;;;;;;0.69;80.20;94694.34;5039491;28;20645;-70
2020/12/28 09:54:13;;;;;;;7.87;7.17;;;;;;;0.47;81.44;94693.50;5041020;28;20214;-69
2020/12/28 09:57:04;;;;;;;9.43;7.57;;;;;;;0.61;81.27;94704.88;5041469;28;20211;-70
2020/12/28 09:59:34;;;;;;;7.37;6.77;;;;;;;0.61;80.72;94715.31;5044520;28;20227;-69
2020/12/28 10:02:01;;;;;;;6.73;6.13;;;;;;;0.49;81.14;94688.91;5036515;28;20807;-70
2020/12/28 10:04:28;;;;;;;6.37;5.80;;;;;;;0.50;81.71;94687.91;5036077;28;20207;-70
2020/12/28 10:06:56;;;;;;;6.87;6.27;;;;;;;0.40;82.48;94683.81;5050849;28;20203;-71
2020/12/28 10:09:23;;;;;;;7.80;7.10;;;;;;;0.32;82.92;94676.06;5039546;28;20227;-70
2020/12/28 10:11:50;;;;;;;6.87;6.27;;;;;;;0.47;82.42;94689.06;5041056;28;20231;-70
2020/12/28 10:14:17;;;;;;;6.50;5.90;;;;;;;0.40;82.82;94691.63;5045140;28;20203;-69
2020/12/28 10:16:45;;;;;;;10.73;6.43;;;;;;;0.50;83.43;94691.31;5042017;28;20211;-71
2020/12/28 10:19:12;;;;;;;7.20;6.53;;;;;;;0.77;80.19;94686.41;5006143;28;20219;-70
2020/12/28 10:21:40;;;;;;;7.37;6.67;;;;;;;0.67;80.78;94689.31;5027117;28;20703;-72
2020/12/28 10:24:08;;;;;;;6.97;6.27;;;;;;;0.63;82.20;94685.44;5020058;28;20206;-68
2020/12/28 10:26:36;;;;;;;7.73;7.00;;;;;;;0.51;82.48;94666.06;5013998;28;20220;-71
2020/12/28 10:29:03;;;;;;;7.30;6.63;;;;;;;0.58;81.88;94669.56;5017544;28;20436;-70
2020/12/28 10:31:30;;;;;;;6.53;6.00;;;;;;;0.66;81.94;94663.44;5016847;28;20329;-71
2020/12/28 10:33:57;;;;;;;6.90;6.40;;;;;;;0.56;82.40;94656.69;5023641;28;20204;-71
2020/12/28 10:36:26;;;;;;;6.50;5.90;;;;;;;0.84;80.59;94642.97;5029938;28;20381;-71
2020/12/28 10:38:58;;;;;;;7.00;6.40;;;;;;;0.62;81.53;94649.94;5019042;28;20248;-68
2020/12/28 10:41:26;;;;;;;6.20;5.60;;;;;;;0.96;80.45;94647.69;5019598;28;20200;-68
2020/12/28 10:43:54;;;;;;;6.50;5.90;;;;;;;0.91;79.74;94655.25;5020325;28;20211;-71
2020/12/28 10:46:21;;;;;;;7.43;6.73;;;;;;;0.93;80.65;94667.13;5018759;28;20205;-70
2020/12/28 10:48:48;;;;;;;8.93;7.37;;;;;;;0.89;80.51;94681.53;5011779;28;20228;-71
2020/12/28 10:51:16;;;;;;;9.90;8.33;;;;;;;0.80;81.38;94680.81;5017625;28;20228;-71
2020/12/28 10:53:43;;;;;;;9.93;8.93;;;;;;;1.05;79.74;94685.69;5019831;28;20213;-70
2020/12/28 10:56:10;;;;;;;8.63;7.83;;;;;;;1.00;79.86;94695.88;5019409;28;20352;-70
2020/12/28 10:58:39;;;;;;;7.97;7.30;;;;;;;0.94;80.39;94688.78;5010704;28;20225;-70
2020/12/28 11:01:08;;;;;;;8.17;7.47;;;;;;;1.01;80.24;94690.47;5018564;28;20684;-70
2020/12/28 11:03:35;;;;;;;7.97;7.37;;;;;;;0.99;80.71;94686.44;5016747;28;20208;-70
2020/12/28 11:06:02;;;;;;;6.93;6.43;;;;;;;0.96;80.15;94679.00;5019098;28;20215;-70
2020/12/28 11:08:29;;;;;;;7.93;7.13;;;;;;;1.00;80.90;94678.41;5020519;28;20964;-70
2020/12/28 11:10:57;;;;;;;8.43;7.67;;;;;;;0.97;80.53;94664.97;5021198;28;20224;-70
2020/12/28 11:13:24;;;;;;;7.60;6.83;;;;;;;1.04;80.49;94660.59;5019665;28;20208;-68
2020/12/28 11:15:52;;;;;;;9.03;8.13;;;;;;;0.95;80.99;94665.13;5024767;28;20744;-70
2020/12/28 11:18:19;;;;;;;9.37;8.27;;;;;;;0.90;81.77;94651.84;5022464;28;20234;-71
2020/12/28 11:20:46;;;;;;;8.43;7.50;;;;;;;0.99;81.69;94648.13;5020794;28;20455;-69
2020/12/28 11:23:17;;;;;;;8.37;7.20;;;;;;;0.96;80.59;94640.66;5016777;28;20200;-70
2020/12/28 11:25:44;;;;;;;8.70;7.80;;;;;;;0.96;81.33;94627.63;5017371;28;20232;-71
2020/12/28 11:28:11;;;;;;;8.03;7.33;;;;;;;0.96;81.64;94622.41;5013469;28;20231;-71
2020/12/28 11:30:38;;;;;;;11.20;6.47;;;;;;;1.09;81.72;94608.69;5016625;28;20212;-70
2020/12/28 11:33:06;;;;;;;6.83;6.23;;;;;;;1.08;81.37;94609.69;5021502;28;20204;-71
2020/12/28 11:35:33;;;;;;;8.87;6.70;;;;;;;1.26;80.27;94605.78;5019074;28;20687;-70
2020/12/28 11:38:00;;;;;;;8.63;7.00;;;;;;;1.22;80.33;94620.22;5019448;28;20470;-71
2020/12/28 11:40:27;;;;;;;7.93;7.13;;;;;;;1.12;80.87;94612.72;5020321;28;20220;-69
2020/12/28 11:42:54;;;;;;;15.90;10.93;;;;;;;1.15;81.15;94600.09;5020532;28;20205;-70